createdAt,value
2023-02-11T00:01:35.597Z,23.48
2023-02-11T00:04:05.790Z,23.63
2023-02-11T00:06:35.617Z,22.10
2023-02-11T00:09:04.799Z,22.83
2023-02-11T00:11:32.557Z,20.98
2023-02-11T00:14:03.451Z,20.27
2023-02-11T00:16:32.343Z,20.43
2023-02-11T00:19:01.998Z,19.23
2023-02-11T00:21:29.952Z,19.10
2023-02-11T00:23:59.862Z,18.35
2023-02-11T00:26:35.242Z,19.60
2023-02-11T00:29:04.643Z,18.50
2023-02-11T00:31:33.176Z,18.40
2023-02-11T00:34:00.918Z,17.73
2023-02-11T00:36:30.129Z,17.67
2023-02-11T00:38:59.881Z,16.58
2023-02-11T00:41:29.552Z,16.48
2023-02-11T00:44:01.742Z,17.02
2023-02-11T00:46:30.520Z,16.33
2023-02-11T00:48:58.110Z,17.08
2023-02-11T00:51:28.618Z,15.80
2023-02-11T00:53:59.071Z,15.25
2023-02-11T00:56:28.006Z,16.13
2023-02-11T00:58:57.079Z,14.88
2023-02-11T01:01:25.298Z,14.15
2023-02-11T01:03:53.064Z,13.95
2023-02-11T01:06:23.349Z,13.82
2023-02-11T01:08:50.953Z,14.07
2023-02-11T01:11:21.583Z,13.65
2023-02-11T01:13:50.360Z,14.55
2023-02-11T01:16:20.173Z,13.60
2023-02-11T01:18:48.058Z,14.07
2023-02-11T01:21:19.156Z,13.93
2023-02-11T01:23:46.885Z,14.02
2023-02-11T01:26:14.403Z,13.35
2023-02-11T01:28:44.509Z,13.98
2023-02-11T01:31:12.136Z,13.82
2023-02-11T01:33:40.275Z,12.80
2023-02-11T01:36:12.745Z,12.63
2023-02-11T01:38:40.989Z,13.15
2023-02-11T01:41:13.349Z,12.43
2023-02-11T01:43:49.735Z,12.98
2023-02-11T01:46:38.646Z,12.43
2023-02-11T01:49:12.610Z,12.50
2023-02-11T01:51:46.875Z,11.82
2023-02-11T01:54:43.810Z,11.82
2023-02-11T01:57:27.361Z,12.00
2023-02-11T02:00:01.982Z,12.40
2023-02-11T02:03:00.463Z,12.30
2023-02-11T02:05:53.083Z,12.43
2023-02-11T02:08:51.064Z,12.70
2023-02-11T02:11:18.681Z,12.05
2023-02-11T02:13:46.435Z,12.00
2023-02-11T02:16:19.688Z,12.13
2023-02-11T02:19:19.637Z,12.27
2023-02-11T02:22:10.489Z,12.88
2023-02-11T02:25:15.066Z,12.05
2023-02-11T02:28:13.344Z,10.73
2023-02-11T02:31:17.844Z,11.15
2023-02-11T02:34:09.569Z,11.48
2023-02-11T02:37:15.135Z,12.32
2023-02-11T02:39:48.501Z,12.02
2023-02-11T02:42:18.652Z,12.55
2023-02-11T02:44:55.817Z,12.45
2023-02-11T02:47:23.407Z,12.75
2023-02-11T02:49:52.202Z,12.77
2023-02-11T02:52:53.838Z,12.82
2023-02-11T02:55:51.654Z,12.48
2023-02-11T02:58:34.955Z,12.45
2023-02-11T03:01:57.766Z,12.27
2023-02-11T03:05:02.828Z,13.85
2023-02-11T03:07:56.986Z,13.10
2023-02-11T03:10:33.063Z,12.10
2023-02-11T03:13:03.741Z,12.70
2023-02-11T03:15:40.663Z,13.25
2023-02-11T03:18:13.616Z,12.60
2023-02-11T03:20:45.625Z,12.48
2023-02-11T03:23:29.008Z,14.15
2023-02-11T03:26:05.594Z,12.18
2023-02-11T03:29:05.006Z,12.52
2023-02-11T03:32:17.654Z,12.02
2023-02-11T03:35:01.437Z,12.00
2023-02-11T03:37:50.722Z,12.02
2023-02-11T03:40:27.411Z,11.52
2023-02-11T03:43:01.112Z,12.55
2023-02-11T03:45:30.484Z,11.85
2023-02-11T03:48:06.171Z,12.98
2023-02-11T03:50:36.968Z,13.20
2023-02-11T03:53:06.349Z,12.33
2023-02-11T03:55:39.888Z,12.00
2023-02-11T03:58:09.095Z,12.75
2023-02-11T04:00:41.141Z,11.45
2023-02-11T04:03:10.993Z,13.02
2023-02-11T04:05:38.978Z,12.60
2023-02-11T04:08:07.058Z,13.00
2023-02-11T04:10:34.926Z,13.52
2023-02-11T04:13:02.415Z,13.65
2023-02-11T04:15:30.220Z,13.52
2023-02-11T04:17:57.917Z,12.82
2023-02-11T04:20:25.482Z,12.27
2023-02-11T04:22:53.220Z,12.63
2023-02-11T04:25:21.212Z,12.70
2023-02-11T04:27:48.697Z,13.60
2023-02-11T04:30:16.441Z,11.98
2023-02-11T04:32:43.980Z,12.32
2023-02-11T04:35:11.616Z,12.40
2023-02-11T04:37:39.465Z,12.25
2023-02-11T04:40:07.791Z,11.68
2023-02-11T04:42:35.321Z,12.90
2023-02-11T04:45:03.491Z,12.45
2023-02-11T04:47:31.044Z,13.25
2023-02-11T04:49:58.603Z,12.13
2023-02-11T04:52:26.310Z,11.88
2023-02-11T04:54:53.818Z,12.45
2023-02-11T04:57:21.325Z,12.50
2023-02-11T04:59:49.080Z,11.93
2023-02-11T05:02:16.717Z,13.23
2023-02-11T05:04:44.209Z,12.60
2023-02-11T05:07:11.870Z,13.60
2023-02-11T05:09:39.346Z,12.80
2023-02-11T05:12:07.060Z,13.05
2023-02-11T05:14:34.772Z,13.20
2023-02-11T05:17:02.400Z,13.23
2023-02-11T05:19:31.983Z,13.90
2023-02-11T05:22:03.033Z,13.45
2023-02-11T05:24:34.982Z,13.10
2023-02-11T05:27:02.571Z,13.95
2023-02-11T05:29:30.133Z,13.05
2023-02-11T05:31:59.621Z,12.85
2023-02-11T05:34:27.309Z,12.88
2023-02-11T05:36:55.187Z,13.38
2023-02-11T05:39:22.727Z,13.00
2023-02-11T05:41:50.386Z,13.32
2023-02-11T05:44:18.107Z,13.50
2023-02-11T05:46:45.765Z,13.77
2023-02-11T05:49:13.281Z,13.82
2023-02-11T05:51:41.138Z,14.85
2023-02-11T05:54:08.700Z,14.48
2023-02-11T05:56:36.183Z,14.13
2023-02-11T05:59:04.089Z,14.05
2023-02-11T06:01:31.665Z,14.15
2023-02-11T06:03:59.347Z,13.90
2023-02-11T06:06:26.996Z,14.25
2023-02-11T06:08:54.639Z,15.50
2023-02-11T06:11:22.448Z,16.10
2023-02-11T06:13:50.071Z,15.75
2023-02-11T06:16:17.903Z,15.75
2023-02-11T06:18:45.430Z,16.42
2023-02-11T06:21:13.055Z,16.08
2023-02-11T06:23:40.579Z,16.33
2023-02-11T06:26:15.589Z,17.42
2023-02-11T06:28:44.314Z,16.90
2023-02-11T06:31:14.661Z,16.98
2023-02-11T06:33:42.375Z,17.55
2023-02-11T06:36:18.234Z,17.02
2023-02-11T06:38:46.695Z,16.58
2023-02-11T06:41:17.586Z,17.42
2023-02-11T06:43:45.138Z,17.95
2023-02-11T06:46:12.825Z,18.27
2023-02-11T06:48:43.066Z,18.35
2023-02-11T06:53:45.067Z,18.08
2023-02-11T06:58:43.872Z,18.42
2023-02-11T07:01:16.021Z,19.92
2023-02-11T07:03:46.690Z,18.83
2023-02-11T07:06:22.425Z,19.83
2023-02-11T07:08:50.579Z,21.25
2023-02-11T07:11:24.427Z,20.67
2023-02-11T07:13:55.320Z,21.20
2023-02-11T07:16:23.714Z,20.00
2023-02-11T07:18:51.851Z,20.95
2023-02-11T07:21:24.315Z,21.65
2023-02-11T07:23:52.697Z,21.80
2023-02-11T07:26:23.543Z,22.27
2023-02-11T07:28:53.100Z,22.05
2023-02-11T07:31:26.757Z,22.00
2023-02-11T07:33:59.170Z,22.02
2023-02-11T07:36:29.350Z,22.15
2023-02-11T07:38:57.387Z,22.95
2023-02-11T07:41:26.400Z,23.90
2023-02-11T07:43:54.980Z,23.50
2023-02-11T07:46:28.178Z,24.30
2023-02-11T07:48:56.341Z,23.83
2023-02-11T07:51:30.371Z,24.38
2023-02-11T07:54:00.562Z,25.15
2023-02-11T07:56:29.671Z,25.52
2023-02-11T07:59:02.446Z,25.60
2023-02-11T08:01:30.940Z,25.35
2023-02-11T08:04:01.487Z,26.15
2023-02-11T08:06:34.634Z,27.30
2023-02-11T08:09:08.908Z,26.40
2023-02-11T08:11:36.742Z,26.38
2023-02-11T08:14:04.521Z,26.05
2023-02-11T08:16:35.323Z,26.80
2023-02-11T08:19:07.746Z,28.83
2023-02-11T08:21:35.559Z,28.45
2023-02-11T08:24:03.900Z,27.60
2023-02-11T08:26:35.201Z,27.25
2023-02-11T08:29:10.420Z,29.23
2023-02-11T08:31:42.562Z,29.85
2023-02-11T08:34:11.984Z,29.33
2023-02-11T08:36:42.416Z,28.85
2023-02-11T08:39:20.232Z,29.23
2023-02-11T08:41:52.312Z,31.45
2023-02-11T08:46:50.206Z,31.00
2023-02-11T08:49:17.960Z,32.22
2023-02-11T08:51:46.861Z,31.42
2023-02-11T08:54:15.783Z,30.55
2023-02-11T08:56:44.087Z,31.23
2023-02-11T08:59:15.422Z,31.67
2023-02-11T09:01:44.271Z,33.13
2023-02-11T09:04:11.995Z,31.52
2023-02-11T09:06:40.138Z,31.55
2023-02-11T09:09:13.650Z,31.02
2023-02-11T09:11:44.054Z,31.15
2023-02-11T09:14:21.738Z,33.80
2023-02-11T09:16:51.496Z,33.25
2023-02-11T09:19:19.933Z,32.00
2023-02-11T09:21:47.788Z,34.28
2023-02-11T09:24:15.775Z,34.55
2023-02-11T09:26:44.046Z,35.05
2023-02-11T09:29:12.901Z,31.75
2023-02-11T09:31:41.142Z,32.80
2023-02-11T09:34:08.884Z,34.03
2023-02-11T09:36:39.632Z,36.00
2023-02-11T09:39:17.126Z,33.40
2023-02-11T09:42:20.251Z,34.67
2023-02-11T09:44:47.932Z,33.40
2023-02-11T09:47:33.106Z,34.25
2023-02-11T09:50:07.296Z,34.40
2023-02-11T09:52:47.609Z,34.50
2023-02-11T09:55:47.521Z,32.35
2023-02-11T09:58:24.780Z,33.65
2023-02-11T10:01:41.506Z,32.40
2023-02-11T10:04:18.242Z,35.50
2023-02-11T10:06:53.000Z,33.10
2023-02-11T10:10:03.649Z,34.65
2023-02-11T10:13:10.595Z,34.17
2023-02-11T10:15:48.803Z,33.25
2023-02-11T10:18:29.386Z,33.83
2023-02-11T10:21:24.509Z,33.38
2023-02-11T10:23:57.351Z,33.08
2023-02-11T10:26:30.963Z,33.80
2023-02-11T10:29:14.050Z,34.97
2023-02-11T10:31:45.008Z,35.35
2023-02-11T10:34:14.924Z,35.25
2023-02-11T10:36:45.018Z,34.00
2023-02-11T10:39:20.726Z,35.22
2023-02-11T10:41:57.611Z,36.03
2023-02-11T10:45:17.785Z,33.92
2023-02-11T10:47:45.596Z,34.45
2023-02-11T10:50:35.251Z,34.85
2023-02-11T10:53:20.761Z,34.33
2023-02-11T10:55:53.938Z,31.83
2023-02-11T10:58:35.900Z,33.42
2023-02-11T11:03:50.061Z,35.35
2023-02-11T11:06:32.454Z,35.33
2023-02-11T11:09:01.119Z,33.17
2023-02-11T11:11:28.812Z,34.80
2023-02-11T11:14:01.223Z,35.38
2023-02-11T11:16:36.094Z,35.65
2023-02-11T11:19:06.608Z,36.17
2023-02-11T11:21:55.849Z,34.83
2023-02-11T11:24:35.316Z,34.30
2023-02-11T11:27:05.371Z,37.90
2023-02-11T11:29:50.413Z,33.55
2023-02-11T11:32:28.336Z,35.78
2023-02-11T11:35:01.209Z,35.08
2023-02-11T11:37:33.161Z,36.70
2023-02-11T11:40:15.523Z,34.55
2023-02-11T11:42:43.798Z,34.30
2023-02-11T11:45:19.914Z,36.88
2023-02-11T11:48:09.673Z,35.53
2023-02-11T11:50:47.640Z,33.63
2023-02-11T11:53:23.608Z,33.83
2023-02-11T11:55:59.855Z,34.33
2023-02-11T11:58:30.159Z,34.92
2023-02-11T12:01:22.855Z,34.72
2023-02-11T12:05:01.429Z,34.78
2023-02-11T12:08:28.139Z,34.35
2023-02-11T12:11:10.674Z,33.92
2023-02-11T12:14:27.426Z,32.20
2023-02-11T12:17:50.959Z,32.33
2023-02-11T12:20:43.617Z,32.30
2023-02-11T12:23:38.710Z,31.42
2023-02-11T12:26:23.463Z,32.78
2023-02-11T12:29:57.851Z,31.85
2023-02-11T12:32:51.336Z,28.48
2023-02-11T12:36:14.121Z,29.80
2023-02-11T12:39:16.133Z,28.02
2023-02-11T12:42:29.534Z,27.55
2023-02-11T12:45:27.471Z,25.35
2023-02-11T12:48:10.567Z,26.67
2023-02-11T12:51:05.898Z,24.85
2023-02-11T12:54:08.104Z,27.08
2023-02-11T12:57:18.490Z,25.65
2023-02-11T13:00:00.701Z,25.52
2023-02-11T13:02:49.377Z,26.42
2023-02-11T13:05:58.787Z,25.27
2023-02-11T13:08:31.456Z,21.83
2023-02-11T13:11:29.750Z,21.02
2023-02-11T13:14:19.350Z,20.63
2023-02-11T13:16:50.778Z,21.52
2023-02-11T13:19:33.041Z,22.48
2023-02-11T13:22:43.610Z,19.33
2023-02-11T13:25:36.317Z,19.50
2023-02-11T13:28:47.786Z,20.23
2023-02-11T13:31:16.773Z,20.35
2023-02-11T13:33:45.790Z,17.02
2023-02-11T13:36:27.750Z,17.70
2023-02-11T13:39:21.424Z,18.00
2023-02-11T13:41:52.254Z,16.45
2023-02-11T13:44:26.587Z,17.65
2023-02-11T13:47:07.173Z,18.02
2023-02-11T13:49:52.221Z,18.23
2023-02-11T13:52:27.475Z,19.02
2023-02-11T13:55:12.198Z,18.83
2023-02-11T13:57:41.902Z,19.95
2023-02-11T14:00:34.680Z,19.08
2023-02-11T14:03:30.296Z,20.58
2023-02-11T14:06:30.611Z,20.50
2023-02-11T14:09:22.346Z,21.77
2023-02-11T14:11:55.339Z,23.65
2023-02-11T14:14:28.900Z,20.83
2023-02-11T14:16:59.796Z,21.33
2023-02-11T14:19:43.868Z,21.97
2023-02-11T14:22:25.976Z,21.98
2023-02-11T14:25:04.674Z,23.35
2023-02-11T14:27:51.484Z,21.58
2023-02-11T14:30:46.517Z,21.33
2023-02-11T14:34:06.924Z,21.05
2023-02-11T14:36:52.854Z,21.85
2023-02-11T14:39:23.148Z,21.38
2023-02-11T14:41:51.669Z,21.50
2023-02-11T14:44:27.439Z,21.15
2023-02-11T14:46:56.160Z,22.20
2023-02-11T14:49:31.195Z,22.05
2023-02-11T14:52:27.597Z,20.48
2023-02-11T14:55:09.085Z,22.08
2023-02-11T14:57:37.961Z,21.13
2023-02-11T15:00:19.130Z,21.30
2023-02-11T15:02:47.078Z,20.92
2023-02-11T15:05:19.369Z,21.33
2023-02-11T15:08:00.736Z,21.92
2023-02-11T15:10:43.938Z,19.92
2023-02-11T15:13:21.630Z,20.42
2023-02-11T15:15:55.900Z,20.88
2023-02-11T15:18:33.943Z,20.83
2023-02-11T15:21:01.978Z,20.88
2023-02-11T15:23:31.723Z,21.05
2023-02-11T15:26:04.631Z,20.90
2023-02-11T15:28:35.447Z,20.17
2023-02-11T15:31:17.838Z,21.00
2023-02-11T15:33:46.919Z,20.40
2023-02-11T15:36:17.669Z,20.15
2023-02-11T15:38:45.263Z,20.73
2023-02-11T15:41:38.431Z,20.27
2023-02-11T15:44:05.946Z,19.08
2023-02-11T15:46:39.797Z,17.27
2023-02-11T15:49:19.222Z,17.10
2023-02-11T15:51:47.602Z,17.27
2023-02-11T15:54:22.192Z,16.40
2023-02-11T15:56:55.456Z,16.55
2023-02-11T15:59:52.210Z,16.27
2023-02-11T16:02:25.650Z,16.88
2023-02-11T16:05:06.069Z,17.45
2023-02-11T16:07:49.812Z,16.20
2023-02-11T16:10:36.093Z,17.63
2023-02-11T16:13:06.442Z,17.73
2023-02-11T16:15:33.874Z,17.48
2023-02-11T16:18:12.683Z,18.30
2023-02-11T16:20:40.886Z,17.27
2023-02-11T16:23:08.583Z,17.23
2023-02-11T16:25:37.424Z,18.80
2023-02-11T16:28:05.457Z,18.60
2023-02-11T16:30:40.527Z,18.67
2023-02-11T16:33:11.298Z,18.88
2023-02-11T16:35:39.048Z,18.02
2023-02-11T16:38:06.525Z,18.45
2023-02-11T16:40:35.685Z,18.17
2023-02-11T16:43:03.152Z,19.88
2023-02-11T16:45:31.750Z,18.73
2023-02-11T16:48:00.130Z,19.42
2023-02-11T16:50:28.344Z,19.00
2023-02-11T16:52:55.883Z,19.35
2023-02-11T16:55:23.449Z,19.13
2023-02-11T16:57:51.149Z,20.17
2023-02-11T17:00:21.032Z,19.45
2023-02-11T17:02:48.840Z,19.98
2023-02-11T17:05:23.066Z,19.63
2023-02-11T17:07:51.916Z,19.40
2023-02-11T17:10:23.554Z,20.35
2023-02-11T17:15:20.234Z,21.55
2023-02-11T17:17:48.169Z,21.33
2023-02-11T17:20:16.382Z,21.25
2023-02-11T17:22:43.886Z,21.88
2023-02-11T17:25:11.837Z,21.48
2023-02-11T17:27:39.550Z,21.80
2023-02-11T17:30:08.689Z,23.95
2023-02-11T17:32:37.425Z,24.02
2023-02-11T17:35:08.317Z,23.30
2023-02-11T17:37:35.841Z,25.70
2023-02-11T17:40:03.894Z,25.23
2023-02-11T17:42:31.413Z,25.55
2023-02-11T17:44:59.132Z,26.00
2023-02-11T17:47:26.703Z,27.83
2023-02-11T17:49:54.290Z,27.52
2023-02-11T17:52:21.861Z,27.20
2023-02-11T17:54:49.878Z,28.33
2023-02-11T17:57:17.631Z,27.92
2023-02-11T17:59:45.343Z,27.98
2023-02-11T18:02:13.134Z,28.80
2023-02-11T18:04:40.804Z,29.95
2023-02-11T18:07:08.390Z,29.17
2023-02-11T18:09:40.407Z,25.95
2023-02-11T18:12:08.903Z,27.27
2023-02-11T18:14:40.419Z,27.48
2023-02-11T18:17:08.173Z,27.15
2023-02-11T18:19:36.629Z,28.08
2023-02-11T18:22:04.460Z,28.98
2023-02-11T18:24:32.074Z,26.75
2023-02-11T18:26:59.699Z,29.20
2023-02-11T18:29:27.758Z,28.70
2023-02-11T18:31:57.627Z,30.48
2023-02-11T18:34:25.935Z,30.20
2023-02-11T18:36:54.218Z,27.60
2023-02-11T18:39:24.252Z,29.65
2023-02-11T18:41:56.776Z,29.85
2023-02-11T18:44:25.803Z,29.13
2023-02-11T18:46:54.196Z,30.13
2023-02-11T18:49:21.802Z,31.58
2023-02-11T18:51:49.537Z,30.98
2023-02-11T18:54:17.066Z,31.60
2023-02-11T18:56:44.986Z,29.02
2023-02-11T18:59:12.739Z,31.38
2023-02-11T19:01:43.262Z,32.63
2023-02-11T19:04:11.427Z,29.42
2023-02-11T19:06:39.339Z,30.30
2023-02-11T19:09:15.450Z,29.90
2023-02-11T19:11:53.872Z,31.92
2023-02-11T19:14:28.718Z,30.08
2023-02-11T19:17:00.486Z,29.70
2023-02-11T19:19:32.392Z,30.10
2023-02-11T19:22:02.438Z,30.40
2023-02-11T19:24:30.837Z,30.08
2023-02-11T19:27:03.214Z,30.30
2023-02-11T19:29:35.282Z,29.92
2023-02-11T19:32:08.501Z,30.83
2023-02-11T19:34:41.406Z,29.48
2023-02-11T19:37:12.693Z,28.88
2023-02-11T19:39:42.714Z,29.27
2023-02-11T19:42:10.728Z,30.00
2023-02-11T19:44:38.625Z,29.50
2023-02-11T19:47:06.910Z,30.25
2023-02-11T19:49:34.588Z,29.35
2023-02-11T19:52:02.294Z,30.67
2023-02-11T19:54:29.799Z,31.17
2023-02-11T19:56:58.046Z,32.63
2023-02-11T19:59:25.763Z,31.50
2023-02-11T20:01:53.905Z,32.10
2023-02-11T20:04:21.568Z,33.65
2023-02-11T20:06:49.525Z,31.02
2023-02-11T20:09:17.079Z,32.88
2023-02-11T20:11:45.001Z,31.17
2023-02-11T20:14:15.220Z,32.13
2023-02-11T20:16:49.253Z,30.02
2023-02-11T20:19:22.014Z,31.83
2023-02-11T20:21:53.332Z,33.00
2023-02-11T20:24:22.082Z,31.02
2023-02-11T20:26:51.636Z,31.55
2023-02-11T20:29:19.348Z,29.27
2023-02-11T20:31:48.962Z,30.00
2023-02-11T20:34:18.184Z,29.23
2023-02-11T20:36:51.793Z,29.15
2023-02-11T20:39:23.526Z,28.25
2023-02-11T20:41:53.674Z,29.80
2023-02-11T20:44:22.639Z,29.75
2023-02-11T20:46:54.143Z,30.35
2023-02-11T20:51:53.585Z,29.45
2023-02-11T20:54:23.226Z,29.38
2023-02-11T20:56:53.623Z,29.00
2023-02-11T20:59:21.815Z,28.38
2023-02-11T21:01:54.100Z,29.05
2023-02-11T21:04:29.779Z,29.58
2023-02-11T21:07:01.394Z,29.85
2023-02-11T21:09:32.501Z,30.40
2023-02-11T21:12:00.824Z,32.42
2023-02-11T21:14:29.413Z,33.22
2023-02-11T21:16:57.619Z,34.63
2023-02-11T21:19:25.233Z,32.90
2023-02-11T21:21:54.782Z,30.77
2023-02-11T21:24:22.952Z,31.48
2023-02-11T21:26:50.478Z,29.55
2023-02-11T21:29:18.075Z,30.48
2023-02-11T21:31:46.241Z,30.13
2023-02-11T21:34:15.787Z,30.77
2023-02-11T21:36:45.317Z,28.05
2023-02-11T21:39:14.513Z,27.80
2023-02-11T21:41:41.953Z,29.00
2023-02-11T21:44:09.549Z,29.13
2023-02-11T21:46:37.350Z,28.45
2023-02-11T21:49:05.065Z,27.48
2023-02-11T21:51:32.539Z,28.73
2023-02-11T21:54:02.686Z,29.30
2023-02-11T21:56:33.884Z,29.63
2023-02-11T21:59:02.025Z,28.92
2023-02-11T22:01:35.305Z,29.52
2023-02-11T22:04:04.315Z,28.52
2023-02-11T22:06:34.601Z,28.50
2023-02-11T22:09:07.077Z,28.13
2023-02-11T22:11:35.394Z,27.48
2023-02-11T22:14:03.536Z,27.70
2023-02-11T22:16:31.680Z,28.08
2023-02-11T22:18:59.407Z,27.35
2023-02-11T22:21:27.056Z,28.50
2023-02-11T22:23:56.062Z,27.95
2023-02-11T22:26:27.125Z,28.15
2023-02-11T22:28:55.967Z,27.30
2023-02-11T22:31:30.519Z,27.58
2023-02-11T22:34:00.237Z,28.35
2023-02-11T22:36:35.650Z,28.85
2023-02-11T22:39:08.297Z,27.50
2023-02-11T22:41:38.162Z,28.67
2023-02-11T22:44:05.739Z,29.08
2023-02-11T22:46:33.449Z,28.75
2023-02-11T22:49:00.983Z,27.50
2023-02-11T22:51:30.448Z,28.55
2023-02-11T22:54:05.985Z,27.30
2023-02-11T22:56:35.033Z,27.25
2023-02-11T22:59:08.352Z,26.67
2023-02-11T23:01:35.971Z,26.73
2023-02-11T23:04:06.629Z,27.90
2023-02-11T23:06:35.134Z,26.92
2023-02-11T23:09:09.889Z,25.80
2023-02-11T23:11:38.016Z,26.60
2023-02-11T23:14:05.657Z,27.13
2023-02-11T23:16:34.787Z,26.50
2023-02-11T23:19:09.272Z,26.75
2023-02-11T23:21:39.316Z,24.77
2023-02-11T23:24:14.951Z,24.08
2023-02-11T23:26:44.167Z,24.02
2023-02-11T23:29:12.543Z,24.00
2023-02-11T23:31:45.227Z,22.38
2023-02-11T23:34:20.291Z,23.17
2023-02-11T23:36:48.033Z,22.42
2023-02-11T23:39:16.968Z,20.85
2023-02-11T23:41:45.728Z,21.88
2023-02-11T23:44:13.286Z,23.20
2023-02-11T23:46:40.856Z,21.83
2023-02-11T23:49:08.847Z,23.08
2023-02-11T23:51:36.480Z,21.60
2023-02-11T23:54:04.263Z,22.10
2023-02-11T23:56:32.291Z,22.75
2023-02-11T23:58:59.842Z,21.70
